sensor_id;sensor_type;location;lat;lon;timestamp;pressure;altitude;pressure_sealevel;temperature;humidity
25526;BME280;13424;48.424;11.258;2023-02-04T00:01:30;96450.88;;;7.36;90.87
25526;BME280;13424;48.424;11.258;2023-02-04T00:03:56;96451.19;;;7.13;92.00
25526;BME280;13424;48.424;11.258;2023-02-04T00:06:22;96467.03;;;6.99;91.48
25526;BME280;13424;48.424;11.258;2023-02-04T00:08:47;96465.84;;;7.09;91.13
25526;BME280;13424;48.424;11.258;2023-02-04T00:11:13;96460.38;;;7.17;92.18
25526;BME280;13424;48.424;11.258;2023-02-04T00:13:39;96458.66;;;7.37;90.72
25526;BME280;13424;48.424;11.258;2023-02-04T00:16:05;96461.31;;;7.37;91.05
25526;BME280;13424;48.424;11.258;2023-02-04T00:18:31;96455.31;;;7.22;91.26
25526;BME280;13424;48.424;11.258;2023-02-04T00:20:57;96471.72;;;7.39;91.06
25526;BME280;13424;48.424;11.258;2023-02-04T00:23:23;96471.31;;;7.42;90.64
25526;BME280;13424;48.424;11.258;2023-02-04T00:25:49;96471.66;;;7.19;91.07
25526;BME280;13424;48.424;11.258;2023-02-04T00:28:15;96477.44;;;7.36;91.32
25526;BME280;13424;48.424;11.258;2023-02-04T00:30:41;96483.94;;;7.33;91.00
25526;BME280;13424;48.424;11.258;2023-02-04T00:33:08;96495.13;;;7.22;91.56
25526;BME280;13424;48.424;11.258;2023-02-04T00:35:33;96488.94;;;7.56;89.66
25526;BME280;13424;48.424;11.258;2023-02-04T00:38:03;96488.91;;;7.43;90.01
25526;BME280;13424;48.424;11.258;2023-02-04T00:40:29;96491.41;;;7.64;89.93
25526;BME280;13424;48.424;11.258;2023-02-04T00:42:55;96506.88;;;7.47;89.06
25526;BME280;13424;48.424;11.258;2023-02-04T00:45:21;96498.34;;;7.65;88.69
25526;BME280;13424;48.424;11.258;2023-02-04T00:47:47;96504.00;;;7.49;88.63
25526;BME280;13424;48.424;11.258;2023-02-04T00:50:16;96494.66;;;7.53;89.36
25526;BME280;13424;48.424;11.258;2023-02-04T00:52:42;96501.34;;;7.49;89.86
25526;BME280;13424;48.424;11.258;2023-02-04T00:55:11;96514.34;;;7.78;88.65
25526;BME280;13424;48.424;11.258;2023-02-04T00:57:38;96520.78;;;7.56;89.15
25526;BME280;13424;48.424;11.258;2023-02-04T01:00:05;96529.25;;;7.32;89.31
25526;BME280;13424;48.424;11.258;2023-02-04T01:02:31;96525.72;;;7.59;88.11
25526;BME280;13424;48.424;11.258;2023-02-04T01:04:57;96517.94;;;7.51;88.20
25526;BME280;13424;48.424;11.258;2023-02-04T01:07:23;96514.09;;;7.73;87.45
25526;BME280;13424;48.424;11.258;2023-02-04T01:09:49;96532.78;;;7.04;89.11
25526;BME280;13424;48.424;11.258;2023-02-04T01:12:16;96545.19;;;7.32;87.62
25526;BME280;13424;48.424;11.258;2023-02-04T01:14:42;96550.97;;;7.48;86.28
25526;BME280;13424;48.424;11.258;2023-02-04T01:17:08;96557.66;;;7.38;84.64
25526;BME280;13424;48.424;11.258;2023-02-04T01:19:34;96563.81;;;7.10;84.70
25526;BME280;13424;48.424;11.258;2023-02-04T01:22:00;96567.94;;;7.13;84.53
25526;BME280;13424;48.424;11.258;2023-02-04T01:24:26;96570.84;;;7.59;83.31
25526;BME280;13424;48.424;11.258;2023-02-04T01:27:10;96566.44;;;7.38;83.05
25526;BME280;13424;48.424;11.258;2023-02-04T01:29:36;96558.09;;;7.82;81.84
25526;BME280;13424;48.424;11.258;2023-02-04T01:32:02;96572.22;;;7.48;81.93
25526;BME280;13424;48.424;11.258;2023-02-04T01:34:29;96577.28;;;7.37;82.53
25526;BME280;13424;48.424;11.258;2023-02-04T01:36:56;96586.47;;;7.41;82.14
25526;BME280;13424;48.424;11.258;2023-02-04T01:39:22;96583.91;;;7.26;82.89
25526;BME280;13424;48.424;11.258;2023-02-04T01:41:48;96596.47;;;7.11;83.24
25526;BME280;13424;48.424;11.258;2023-02-04T01:44:14;96602.44;;;7.47;82.10
25526;BME280;13424;48.424;11.258;2023-02-04T01:46:40;96597.22;;;7.61;82.69
25526;BME280;13424;48.424;11.258;2023-02-04T01:49:08;96605.31;;;7.18;82.20
25526;BME280;13424;48.424;11.258;2023-02-04T01:51:35;96607.97;;;7.18;83.58
25526;BME280;13424;48.424;11.258;2023-02-04T01:54:02;96609.22;;;7.22;82.33
25526;BME280;13424;48.424;11.258;2023-02-04T01:56:30;96596.88;;;7.08;82.59
25526;BME280;13424;48.424;11.258;2023-02-04T01:58:57;96600.91;;;7.32;82.11
25526;BME280;13424;48.424;11.258;2023-02-04T02:01:45;96616.41;;;7.00;83.14
25526;BME280;13424;48.424;11.258;2023-02-04T02:04:29;96612.84;;;7.14;82.65
25526;BME280;13424;48.424;11.258;2023-02-04T02:07:00;96611.44;;;6.48;83.99
25526;BME280;13424;48.424;11.258;2023-02-04T02:09:28;96610.69;;;6.96;82.40
25526;BME280;13424;48.424;11.258;2023-02-04T02:11:54;96613.47;;;6.88;82.20
25526;BME280;13424;48.424;11.258;2023-02-04T02:14:20;96610.75;;;6.82;83.11
25526;BME280;13424;48.424;11.258;2023-02-04T02:16:47;96619.66;;;6.53;83.08
25526;BME280;13424;48.424;11.258;2023-02-04T02:19:19;96628.13;;;6.41;83.71
25526;BME280;13424;48.424;11.258;2023-02-04T02:22:00;96632.53;;;6.98;81.69
25526;BME280;13424;48.424;11.258;2023-02-04T02:24:33;96632.38;;;7.07;80.46
25526;BME280;13424;48.424;11.258;2023-02-04T02:27:03;96643.25;;;6.90;81.04
25526;BME280;13424;48.424;11.258;2023-02-04T02:29:31;96638.91;;;6.83;81.73
25526;BME280;13424;48.424;11.258;2023-02-04T02:31:57;96643.53;;;6.74;82.21
25526;BME280;13424;48.424;11.258;2023-02-04T02:34:27;96652.78;;;7.06;81.04
25526;BME280;13424;48.424;11.258;2023-02-04T02:36:55;96656.16;;;7.21;80.53
25526;BME280;13424;48.424;11.258;2023-02-04T02:39:22;96653.00;;;6.83;81.40
25526;BME280;13424;48.424;11.258;2023-02-04T02:45:57;96640.94;;;6.59;80.71
25526;BME280;13424;48.424;11.258;2023-02-04T02:48:24;96638.41;;;6.15;82.17
25526;BME280;13424;48.424;11.258;2023-02-04T02:50:51;96649.25;;;6.78;79.90
25526;BME280;13424;48.424;11.258;2023-02-04T02:53:20;96650.44;;;6.54;81.54
25526;BME280;13424;48.424;11.258;2023-02-04T02:55:47;96649.84;;;6.52;81.11
25526;BME280;13424;48.424;11.258;2023-02-04T02:58:33;96663.13;;;6.37;80.68
25526;BME280;13424;48.424;11.258;2023-02-04T03:01:05;96664.22;;;6.85;79.12
25526;BME280;13424;48.424;11.258;2023-02-04T03:03:52;96670.16;;;6.44;80.67
25526;BME280;13424;48.424;11.258;2023-02-04T03:06:22;96675.78;;;6.20;80.12
25526;BME280;13424;48.424;11.258;2023-02-04T03:08:52;96671.50;;;6.98;78.22
25526;BME280;13424;48.424;11.258;2023-02-04T03:11:21;96673.13;;;6.78;79.20
25526;BME280;13424;48.424;11.258;2023-02-04T03:13:48;96680.91;;;6.58;77.88
25526;BME280;13424;48.424;11.258;2023-02-04T03:16:14;96681.41;;;6.68;79.19
25526;BME280;13424;48.424;11.258;2023-02-04T03:18:44;96676.41;;;6.58;79.35
25526;BME280;13424;48.424;11.258;2023-02-04T03:21:15;96690.22;;;6.32;80.05
25526;BME280;13424;48.424;11.258;2023-02-04T03:23:41;96679.78;;;6.31;81.26
25526;BME280;13424;48.424;11.258;2023-02-04T03:26:07;96690.25;;;6.75;80.03
25526;BME280;13424;48.424;11.258;2023-02-04T03:28:33;96692.13;;;6.60;79.60
25526;BME280;13424;48.424;11.258;2023-02-04T03:31:03;96691.81;;;6.48;79.87
25526;BME280;13424;48.424;11.258;2023-02-04T03:33:29;96699.56;;;6.50;78.87
25526;BME280;13424;48.424;11.258;2023-02-04T03:35:57;96704.09;;;5.90;80.17
25526;BME280;13424;48.424;11.258;2023-02-04T03:38:23;96698.25;;;6.60;79.23
25526;BME280;13424;48.424;11.258;2023-02-04T03:40:49;96705.88;;;6.49;78.86
25526;BME280;13424;48.424;11.258;2023-02-04T03:43:15;96710.59;;;5.87;81.24
25526;BME280;13424;48.424;11.258;2023-02-04T03:45:43;96700.16;;;6.30;80.48
25526;BME280;13424;48.424;11.258;2023-02-04T03:48:09;96704.19;;;5.67;81.42
25526;BME280;13424;48.424;11.258;2023-02-04T03:50:35;96703.28;;;5.89;81.58
25526;BME280;13424;48.424;11.258;2023-02-04T03:53:01;96708.94;;;6.16;79.95
25526;BME280;13424;48.424;11.258;2023-02-04T03:55:27;96719.34;;;6.32;78.90
25526;BME280;13424;48.424;11.258;2023-02-04T03:57:53;96721.72;;;6.27;78.89
25526;BME280;13424;48.424;11.258;2023-02-04T04:00:19;96729.34;;;6.52;78.66
25526;BME280;13424;48.424;11.258;2023-02-04T04:02:45;96738.16;;;6.23;79.22
25526;BME280;13424;48.424;11.258;2023-02-04T04:05:11;96741.81;;;6.07;79.04
25526;BME280;13424;48.424;11.258;2023-02-04T04:07:37;96746.63;;;5.59;80.34
25526;BME280;13424;48.424;11.258;2023-02-04T04:10:03;96747.59;;;6.10;79.48
25526;BME280;13424;48.424;11.258;2023-02-04T04:12:29;96754.22;;;6.51;78.25
25526;BME280;13424;48.424;11.258;2023-02-04T04:14:54;96755.53;;;5.96;79.80
25526;BME280;13424;48.424;11.258;2023-02-04T04:17:20;96770.66;;;6.46;78.13
25526;BME280;13424;48.424;11.258;2023-02-04T04:19:46;96766.75;;;6.78;77.37
25526;BME280;13424;48.424;11.258;2023-02-04T04:22:14;96763.72;;;6.60;76.69
25526;BME280;13424;48.424;11.258;2023-02-04T04:24:40;96764.38;;;6.83;76.48
25526;BME280;13424;48.424;11.258;2023-02-04T04:27:07;96766.66;;;6.50;77.59
25526;BME280;13424;48.424;11.258;2023-02-04T04:29:32;96769.75;;;6.54;77.02
25526;BME280;13424;48.424;11.258;2023-02-04T04:31:58;96774.00;;;6.69;76.79
25526;BME280;13424;48.424;11.258;2023-02-04T04:34:24;96769.16;;;6.73;76.52
25526;BME280;13424;48.424;11.258;2023-02-04T04:36:50;96773.09;;;6.62;75.96
25526;BME280;13424;48.424;11.258;2023-02-04T04:39:16;96775.25;;;6.37;76.75
25526;BME280;13424;48.424;11.258;2023-02-04T04:41:48;96776.56;;;6.63;75.61
25526;BME280;13424;48.424;11.258;2023-02-04T04:44:13;96780.66;;;6.14;75.52
25526;BME280;13424;48.424;11.258;2023-02-04T04:46:39;96774.00;;;6.33;74.11
25526;BME280;13424;48.424;11.258;2023-02-04T04:49:06;96776.88;;;6.38;74.15
25526;BME280;13424;48.424;11.258;2023-02-04T04:51:33;96789.88;;;6.48;74.35
25526;BME280;13424;48.424;11.258;2023-02-04T04:53:59;96780.13;;;6.19;73.84
25526;BME280;13424;48.424;11.258;2023-02-04T04:56:25;96783.84;;;6.39;72.76
25526;BME280;13424;48.424;11.258;2023-02-04T04:58:51;96794.03;;;6.72;72.35
25526;BME280;13424;48.424;11.258;2023-02-04T05:01:17;96798.94;;;6.24;73.79
25526;BME280;13424;48.424;11.258;2023-02-04T05:03:43;96800.00;;;6.15;74.42
25526;BME280;13424;48.424;11.258;2023-02-04T05:06:09;96795.44;;;6.24;74.22
25526;BME280;13424;48.424;11.258;2023-02-04T05:08:44;96798.47;;;6.06;73.91
25526;BME280;13424;48.424;11.258;2023-02-04T05:11:10;96807.06;;;6.37;73.92
25526;BME280;13424;48.424;11.258;2023-02-04T05:13:36;96808.53;;;6.25;75.58
25526;BME280;13424;48.424;11.258;2023-02-04T05:16:02;96803.78;;;6.35;74.16
25526;BME280;13424;48.424;11.258;2023-02-04T05:18:27;96820.19;;;6.16;74.86
25526;BME280;13424;48.424;11.258;2023-02-04T05:20:53;96812.59;;;6.72;74.41
25526;BME280;13424;48.424;11.258;2023-02-04T05:23:19;96814.81;;;6.54;74.17
25526;BME280;13424;48.424;11.258;2023-02-04T05:25:45;96818.56;;;6.15;75.36
25526;BME280;13424;48.424;11.258;2023-02-04T05:28:10;96822.13;;;6.22;75.85
25526;BME280;13424;48.424;11.258;2023-02-04T05:30:36;96831.72;;;6.53;74.72
25526;BME280;13424;48.424;11.258;2023-02-04T05:33:02;96826.22;;;6.54;74.94
25526;BME280;13424;48.424;11.258;2023-02-04T05:35:28;96834.84;;;6.41;75.97
25526;BME280;13424;48.424;11.258;2023-02-04T05:37:53;96837.31;;;6.28;76.36
25526;BME280;13424;48.424;11.258;2023-02-04T05:40:23;96847.91;;;6.28;76.95
25526;BME280;13424;48.424;11.258;2023-02-04T05:42:48;96855.13;;;6.34;76.93
25526;BME280;13424;48.424;11.258;2023-02-04T05:45:16;96858.31;;;6.30;76.89
25526;BME280;13424;48.424;11.258;2023-02-04T05:47:43;96857.31;;;6.46;76.31
25526;BME280;13424;48.424;11.258;2023-02-04T05:50:09;96873.28;;;6.23;77.02
25526;BME280;13424;48.424;11.258;2023-02-04T05:52:35;96870.00;;;6.21;76.70
25526;BME280;13424;48.424;11.258;2023-02-04T05:55:01;96881.28;;;6.52;76.02
25526;BME280;13424;48.424;11.258;2023-02-04T05:57:36;96879.22;;;6.98;75.09
25526;BME280;13424;48.424;11.258;2023-02-04T06:00:03;96883.81;;;6.46;75.94
25526;BME280;13424;48.424;11.258;2023-02-04T06:02:37;96881.63;;;6.79;74.86
25526;BME280;13424;48.424;11.258;2023-02-04T06:05:04;96879.97;;;6.92;74.34
25526;BME280;13424;48.424;11.258;2023-02-04T06:07:30;96885.84;;;6.43;75.75
25526;BME280;13424;48.424;11.258;2023-02-04T06:09:56;96900.72;;;6.30;76.40
25526;BME280;13424;48.424;11.258;2023-02-04T06:12:22;96898.25;;;6.28;76.32
25526;BME280;13424;48.424;11.258;2023-02-04T06:14:48;96901.47;;;6.38;75.22
25526;BME280;13424;48.424;11.258;2023-02-04T06:17:14;96905.88;;;6.76;74.44
25526;BME280;13424;48.424;11.258;2023-02-04T06:19:41;96907.31;;;6.93;74.01
25526;BME280;13424;48.424;11.258;2023-02-04T06:22:07;96904.66;;;6.78;73.59
25526;BME280;13424;48.424;11.258;2023-02-04T06:24:33;96917.09;;;6.63;74.35
25526;BME280;13424;48.424;11.258;2023-02-04T06:26:58;96919.38;;;6.36;75.25
25526;BME280;13424;48.424;11.258;2023-02-04T06:29:24;96915.47;;;6.32;75.45
25526;BME280;13424;48.424;11.258;2023-02-04T06:31:50;96919.22;;;6.53;74.96
25526;BME280;13424;48.424;11.258;2023-02-04T06:34:16;96932.28;;;6.54;74.03
25526;BME280;13424;48.424;11.258;2023-02-04T06:36:42;96931.75;;;6.59;74.09
25526;BME280;13424;48.424;11.258;2023-02-04T06:39:08;96940.63;;;6.95;73.38
25526;BME280;13424;48.424;11.258;2023-02-04T06:41:34;96949.47;;;6.58;73.94
25526;BME280;13424;48.424;11.258;2023-02-04T06:43:59;96941.50;;;6.43;74.09
25526;BME280;13424;48.424;11.258;2023-02-04T06:46:25;96951.13;;;6.74;74.33
25526;BME280;13424;48.424;11.258;2023-02-04T06:48:51;96953.78;;;6.59;73.86
25526;BME280;13424;48.424;11.258;2023-02-04T06:51:17;96959.22;;;6.43;74.43
25526;BME280;13424;48.424;11.258;2023-02-04T06:53:43;96955.03;;;6.63;74.00
25526;BME280;13424;48.424;11.258;2023-02-04T06:56:10;96965.19;;;6.60;73.91
25526;BME280;13424;48.424;11.258;2023-02-04T06:58:43;96964.47;;;6.51;74.83
25526;BME280;13424;48.424;11.258;2023-02-04T07:01:09;96962.66;;;6.66;74.47
25526;BME280;13424;48.424;11.258;2023-02-04T07:03:35;96959.03;;;6.07;75.77
25526;BME280;13424;48.424;11.258;2023-02-04T07:06:00;96962.91;;;6.42;75.07
25526;BME280;13424;48.424;11.258;2023-02-04T07:08:26;96963.72;;;6.42;75.05
25526;BME280;13424;48.424;11.258;2023-02-04T07:10:52;96977.09;;;6.93;74.02
25526;BME280;13424;48.424;11.258;2023-02-04T07:13:18;96974.63;;;6.77;74.18
25526;BME280;13424;48.424;11.258;2023-02-04T07:15:45;96985.47;;;6.53;74.20
25526;BME280;13424;48.424;11.258;2023-02-04T07:18:10;96989.06;;;6.22;75.02
25526;BME280;13424;48.424;11.258;2023-02-04T07:20:36;96989.81;;;6.31;75.90
25526;BME280;13424;48.424;11.258;2023-02-04T07:23:54;96996.59;;;6.33;75.43
25526;BME280;13424;48.424;11.258;2023-02-04T07:26:20;96990.44;;;6.56;75.48
25526;BME280;13424;48.424;11.258;2023-02-04T07:28:46;97000.97;;;6.26;75.00
25526;BME280;13424;48.424;11.258;2023-02-04T07:31:31;97002.63;;;6.27;75.34
25526;BME280;13424;48.424;11.258;2023-02-04T07:33:56;97016.44;;;6.75;73.87
25526;BME280;13424;48.424;11.258;2023-02-04T07:40:28;97020.94;;;6.52;74.57
25526;BME280;13424;48.424;11.258;2023-02-04T07:42:54;97029.59;;;6.46;75.08
25526;BME280;13424;48.424;11.258;2023-02-04T07:45:22;97033.16;;;6.76;74.17
25526;BME280;13424;48.424;11.258;2023-02-04T07:47:48;97028.03;;;6.74;75.01
25526;BME280;13424;48.424;11.258;2023-02-04T07:50:14;97041.97;;;6.91;74.51
25526;BME280;13424;48.424;11.258;2023-02-04T07:52:42;97042.22;;;6.81;73.56
25526;BME280;13424;48.424;11.258;2023-02-04T07:55:08;97045.41;;;6.77;73.73
25526;BME280;13424;48.424;11.258;2023-02-04T07:57:34;97050.28;;;7.03;72.65
25526;BME280;13424;48.424;11.258;2023-02-04T08:00:00;97048.22;;;7.27;72.11
25526;BME280;13424;48.424;11.258;2023-02-04T08:06:11;97047.63;;;6.73;73.82
25526;BME280;13424;48.424;11.258;2023-02-04T08:08:37;97059.88;;;6.74;74.29
25526;BME280;13424;48.424;11.258;2023-02-04T08:11:02;97062.75;;;7.17;73.49
25526;BME280;13424;48.424;11.258;2023-02-04T08:13:28;97071.44;;;6.96;73.70
25526;BME280;13424;48.424;11.258;2023-02-04T08:15:57;97063.75;;;7.16;72.70
25526;BME280;13424;48.424;11.258;2023-02-04T08:18:23;97057.88;;;6.91;74.21
25526;BME280;13424;48.424;11.258;2023-02-04T08:20:50;97058.59;;;6.85;74.52
25526;BME280;13424;48.424;11.258;2023-02-04T08:27:23;97063.94;;;6.62;75.13
25526;BME280;13424;48.424;11.258;2023-02-04T08:29:49;97071.88;;;6.99;74.92
25526;BME280;13424;48.424;11.258;2023-02-04T08:32:14;97073.91;;;6.60;75.08
25526;BME280;13424;48.424;11.258;2023-02-04T08:34:43;97081.50;;;7.15;73.88
25526;BME280;13424;48.424;11.258;2023-02-04T08:37:09;97075.75;;;7.12;74.48
25526;BME280;13424;48.424;11.258;2023-02-04T08:39:35;97065.22;;;7.04;73.79
25526;BME280;13424;48.424;11.258;2023-02-04T08:42:01;97071.31;;;6.89;73.60
25526;BME280;13424;48.424;11.258;2023-02-04T08:44:26;97077.00;;;6.63;75.13
25526;BME280;13424;48.424;11.258;2023-02-04T08:46:52;97078.81;;;6.48;76.49
25526;BME280;13424;48.424;11.258;2023-02-04T08:49:18;97082.53;;;6.77;74.55
25526;BME280;13424;48.424;11.258;2023-02-04T08:51:44;97094.41;;;6.66;75.30
25526;BME280;13424;48.424;11.258;2023-02-04T08:54:10;97095.81;;;6.54;74.97
25526;BME280;13424;48.424;11.258;2023-02-04T08:56:35;97097.75;;;6.60;75.32
25526;BME280;13424;48.424;11.258;2023-02-04T08:59:01;97103.78;;;6.54;74.36
25526;BME280;13424;48.424;11.258;2023-02-04T09:01:28;97108.88;;;7.16;73.69
25526;BME280;13424;48.424;11.258;2023-02-04T09:03:56;97112.03;;;6.59;74.40
25526;BME280;13424;48.424;11.258;2023-02-04T09:06:22;97119.47;;;6.40;75.30
25526;BME280;13424;48.424;11.258;2023-02-04T09:08:48;97122.97;;;7.31;73.35
25526;BME280;13424;48.424;11.258;2023-02-04T09:11:13;97121.28;;;7.89;71.13
25526;BME280;13424;48.424;11.258;2023-02-04T09:13:39;97131.22;;;7.66;71.50
25526;BME280;13424;48.424;11.258;2023-02-04T09:16:05;97138.06;;;7.31;71.37
25526;BME280;13424;48.424;11.258;2023-02-04T09:18:31;97132.53;;;6.42;75.65
25526;BME280;13424;48.424;11.258;2023-02-04T09:20:57;97143.94;;;6.88;73.50
25526;BME280;13424;48.424;11.258;2023-02-04T09:23:26;97146.22;;;7.29;73.45
25526;BME280;13424;48.424;11.258;2023-02-04T09:25:51;97143.59;;;6.46;75.75
25526;BME280;13424;48.424;11.258;2023-02-04T09:28:17;97160.84;;;7.25;72.29
25526;BME280;13424;48.424;11.258;2023-02-04T09:30:45;97160.69;;;6.43;73.41
25526;BME280;13424;48.424;11.258;2023-02-04T09:33:30;97160.44;;;6.98;72.10
25526;BME280;13424;48.424;11.258;2023-02-04T09:35:57;97168.22;;;6.77;72.28
25526;BME280;13424;48.424;11.258;2023-02-04T09:38:23;97175.06;;;5.78;75.24
25526;BME280;13424;48.424;11.258;2023-02-04T09:40:53;97167.09;;;5.23;78.40
25526;BME280;13424;48.424;11.258;2023-02-04T09:43:24;97171.88;;;6.99;73.90
25526;BME280;13424;48.424;11.258;2023-02-04T09:46:00;97161.53;;;6.66;74.16
25526;BME280;13424;48.424;11.258;2023-02-04T09:48:26;97165.78;;;5.74;76.32
25526;BME280;13424;48.424;11.258;2023-02-04T09:51:04;97171.66;;;6.09;74.80
25526;BME280;13424;48.424;11.258;2023-02-04T09:53:30;97188.75;;;6.29;75.96
25526;BME280;13424;48.424;11.258;2023-02-04T09:55:56;97179.09;;;6.67;74.65
25526;BME280;13424;48.424;11.258;2023-02-04T09:58:22;97189.16;;;6.49;75.08
25526;BME280;13424;48.424;11.258;2023-02-04T10:01:00;97180.72;;;6.91;74.42
25526;BME280;13424;48.424;11.258;2023-02-04T10:03:30;97185.81;;;7.53;73.27
25526;BME280;13424;48.424;11.258;2023-02-04T10:05:59;97191.47;;;6.75;74.83
25526;BME280;13424;48.424;11.258;2023-02-04T10:08:29;97189.88;;;7.41;73.83
25526;BME280;13424;48.424;11.258;2023-02-04T10:10:58;97203.94;;;7.94;70.85
25526;BME280;13424;48.424;11.258;2023-02-04T10:13:56;97192.53;;;6.66;76.20
25526;BME280;13424;48.424;11.258;2023-02-04T10:16:31;97189.31;;;6.93;75.39
25526;BME280;13424;48.424;11.258;2023-02-04T10:19:19;97193.56;;;7.03;74.77
25526;BME280;13424;48.424;11.258;2023-02-04T10:21:46;97198.84;;;7.03;74.83
25526;BME280;13424;48.424;11.258;2023-02-04T10:24:18;97198.78;;;6.73;76.79
25526;BME280;13424;48.424;11.258;2023-02-04T10:26:45;97195.88;;;7.73;72.32
25526;BME280;13424;48.424;11.258;2023-02-04T10:29:19;97194.16;;;7.50;73.48
25526;BME280;13424;48.424;11.258;2023-02-04T10:31:49;97202.94;;;7.51;72.89
25526;BME280;13424;48.424;11.258;2023-02-04T10:34:31;97197.13;;;8.36;69.84
25526;BME280;13424;48.424;11.258;2023-02-04T10:37:20;97201.13;;;6.91;71.89
25526;BME280;13424;48.424;11.258;2023-02-04T10:39:47;97194.41;;;6.80;72.41
25526;BME280;13424;48.424;11.258;2023-02-04T10:42:26;97204.28;;;7.09;70.13
25526;BME280;13424;48.424;11.258;2023-02-04T10:44:52;97207.50;;;8.16;69.02
25526;BME280;13424;48.424;11.258;2023-02-04T10:47:22;97199.81;;;8.93;65.21
25526;BME280;13424;48.424;11.258;2023-02-04T10:50:14;97206.88;;;7.84;68.93
25526;BME280;13424;48.424;11.258;2023-02-04T10:52:45;97206.09;;;8.50;63.14
25526;BME280;13424;48.424;11.258;2023-02-04T10:55:19;97198.13;;;8.20;63.66
25526;BME280;13424;48.424;11.258;2023-02-04T10:57:51;97207.97;;;7.61;66.12
25526;BME280;13424;48.424;11.258;2023-02-04T11:00:23;97196.88;;;6.59;71.16
25526;BME280;13424;48.424;11.258;2023-02-04T11:03:15;97197.66;;;6.90;67.91
25526;BME280;13424;48.424;11.258;2023-02-04T11:05:42;97201.28;;;8.09;65.93
25526;BME280;13424;48.424;11.258;2023-02-04T11:08:24;97200.25;;;7.66;66.07
25526;BME280;13424;48.424;11.258;2023-02-04T11:10:57;97204.44;;;8.34;62.36
25526;BME280;13424;48.424;11.258;2023-02-04T11:18:52;97189.63;;;6.98;68.87
25526;BME280;13424;48.424;11.258;2023-02-04T11:26:51;97181.25;;;9.28;62.91
25526;BME280;13424;48.424;11.258;2023-02-04T11:33:25;97178.00;;;9.05;61.89
25526;BME280;13424;48.424;11.258;2023-02-04T11:36:04;97178.34;;;9.23;61.15
25526;BME280;13424;48.424;11.258;2023-02-04T11:38:31;97180.50;;;9.34;59.25
25526;BME280;13424;48.424;11.258;2023-02-04T11:40:58;97182.28;;;8.42;60.63
25526;BME280;13424;48.424;11.258;2023-02-04T11:43:24;97178.09;;;7.88;64.03
25526;BME280;13424;48.424;11.258;2023-02-04T11:46:12;97175.44;;;7.44;65.64
25526;BME280;13424;48.424;11.258;2023-02-04T11:48:40;97180.31;;;7.17;64.61
25526;BME280;13424;48.424;11.258;2023-02-04T11:51:17;97178.91;;;8.18;63.65
25526;BME280;13424;48.424;11.258;2023-02-04T11:53:50;97174.06;;;6.95;66.01
25526;BME280;13424;48.424;11.258;2023-02-04T11:56:19;97180.44;;;6.40;66.41
25526;BME280;13424;48.424;11.258;2023-02-04T11:58:46;97174.41;;;6.47;66.38
25526;BME280;13424;48.424;11.258;2023-02-04T12:01:28;97189.63;;;6.53;67.11
25526;BME280;13424;48.424;11.258;2023-02-04T12:04:02;97187.28;;;6.27;68.79
25526;BME280;13424;48.424;11.258;2023-02-04T12:06:31;97193.56;;;7.55;66.10
25526;BME280;13424;48.424;11.258;2023-02-04T12:09:25;97192.13;;;7.67;66.79
25526;BME280;13424;48.424;11.258;2023-02-04T12:12:00;97193.19;;;6.37;69.42
25526;BME280;13424;48.424;11.258;2023-02-04T12:14:35;97186.03;;;7.29;66.10
25526;BME280;13424;48.424;11.258;2023-02-04T12:17:15;97191.09;;;7.01;66.80
25526;BME280;13424;48.424;11.258;2023-02-04T12:23:48;97183.72;;;7.26;66.66
25526;BME280;13424;48.424;11.258;2023-02-04T12:26:13;97188.03;;;6.43;69.96
25526;BME280;13424;48.424;11.258;2023-02-04T12:28:42;97192.13;;;6.15;68.83
25526;BME280;13424;48.424;11.258;2023-02-04T12:31:07;97185.91;;;7.08;68.25
25526;BME280;13424;48.424;11.258;2023-02-04T12:33:33;97188.47;;;7.83;67.34
25526;BME280;13424;48.424;11.258;2023-02-04T12:35:59;97189.34;;;8.05;65.41
25526;BME280;13424;48.424;11.258;2023-02-04T12:38:25;97186.69;;;6.39;69.72
25526;BME280;13424;48.424;11.258;2023-02-04T12:44:58;97189.03;;;7.26;67.84
25526;BME280;13424;48.424;11.258;2023-02-04T12:47:24;97194.50;;;8.06;64.70
25526;BME280;13424;48.424;11.258;2023-02-04T12:49:50;97190.13;;;7.99;64.90
25526;BME280;13424;48.424;11.258;2023-02-04T12:52:17;97194.88;;;7.59;65.70
25526;BME280;13424;48.424;11.258;2023-02-04T12:54:43;97196.16;;;7.93;65.04
25526;BME280;13424;48.424;11.258;2023-02-04T12:57:09;97186.16;;;8.39;64.29
25526;BME280;13424;48.424;11.258;2023-02-04T12:59:38;97184.22;;;8.69;63.13
25526;BME280;13424;48.424;11.258;2023-02-04T13:02:04;97186.78;;;8.41;63.26
25526;BME280;13424;48.424;11.258;2023-02-04T13:04:30;97194.94;;;8.25;63.49
25526;BME280;13424;48.424;11.258;2023-02-04T13:06:56;97199.59;;;8.74;61.86
25526;BME280;13424;48.424;11.258;2023-02-04T13:13:29;97200.81;;;8.35;63.15
25526;BME280;13424;48.424;11.258;2023-02-04T13:15:54;97200.88;;;8.99;62.20
25526;BME280;13424;48.424;11.258;2023-02-04T13:18:20;97205.53;;;10.02;60.27
25526;BME280;13424;48.424;11.258;2023-02-04T13:20:46;97216.56;;;9.37;60.58
25526;BME280;13424;48.424;11.258;2023-02-04T13:23:12;97199.94;;;8.34;62.22
25526;BME280;13424;48.424;11.258;2023-02-04T13:25:38;97200.66;;;7.92;62.98
25526;BME280;13424;48.424;11.258;2023-02-04T13:28:05;97201.72;;;8.12;63.28
25526;BME280;13424;48.424;11.258;2023-02-04T13:30:30;97200.72;;;8.13;63.21
25526;BME280;13424;48.424;11.258;2023-02-04T13:32:56;97207.31;;;8.68;62.12
25526;BME280;13424;48.424;11.258;2023-02-04T13:35:22;97217.22;;;6.35;66.03
25526;BME280;13424;48.424;11.258;2023-02-04T13:37:48;97208.75;;;6.63;66.12
25526;BME280;13424;48.424;11.258;2023-02-04T13:40:16;97219.31;;;6.94;66.07
25526;BME280;13424;48.424;11.258;2023-02-04T13:42:42;97226.56;;;6.77;66.34
25526;BME280;13424;48.424;11.258;2023-02-04T13:45:09;97231.50;;;7.64;65.41
25526;BME280;13424;48.424;11.258;2023-02-04T13:47:37;97242.78;;;8.25;62.44
25526;BME280;13424;48.424;11.258;2023-02-04T13:50:04;97238.88;;;7.91;63.45